createdAt,value
2018-05-23T00:02:20.582Z,15.27
2018-05-23T00:04:48.130Z,15.24
2018-05-23T00:07:15.830Z,15.28
2018-05-23T00:09:43.845Z,15.24
2018-05-23T00:12:11.419Z,15.28
2018-05-23T00:14:38.976Z,15.21
2018-05-23T00:17:06.534Z,15.30
2018-05-23T00:19:34.045Z,15.37
2018-05-23T00:22:01.593Z,15.33
2018-05-23T00:24:29.151Z,15.27
2018-05-23T00:26:56.752Z,15.27
2018-05-23T00:29:24.516Z,15.25
2018-05-23T00:31:52.170Z,15.23
2018-05-23T00:34:19.740Z,15.05
2018-05-23T00:36:47.292Z,15.19
2018-05-23T00:39:15.657Z,15.16
2018-05-23T00:41:43.394Z,15.14
2018-05-23T00:44:11.022Z,15.14
2018-05-23T00:46:39.363Z,15.16
2018-05-23T00:49:06.937Z,15.16
2018-05-23T00:51:34.811Z,15.17
2018-05-23T00:54:02.666Z,15.20
2018-05-23T00:56:30.348Z,15.15
2018-05-23T00:58:58.271Z,15.06
2018-05-23T01:01:25.810Z,14.98
2018-05-23T01:03:53.365Z,14.82
2018-05-23T01:06:20.919Z,14.78
2018-05-23T01:08:48.478Z,14.79
2018-05-23T01:11:16.026Z,14.81
2018-05-23T01:13:43.637Z,14.87
2018-05-23T01:16:11.336Z,14.85
2018-05-23T01:18:39.082Z,14.77
2018-05-23T01:21:06.603Z,14.78
2018-05-23T01:23:34.177Z,14.87
2018-05-23T01:26:03.847Z,14.93
2018-05-23T01:28:31.453Z,14.92
2018-05-23T01:30:59.011Z,14.95
2018-05-23T01:33:26.594Z,15.00
2018-05-23T01:35:55.247Z,14.96
2018-05-23T01:38:22.944Z,14.92
2018-05-23T01:40:51.447Z,14.96
2018-05-23T01:43:19.498Z,15.00
2018-05-23T01:45:47.038Z,15.02
2018-05-23T01:48:14.574Z,14.98
2018-05-23T01:50:49.142Z,14.98
2018-05-23T01:53:16.761Z,14.96
2018-05-23T01:55:44.334Z,14.97
2018-05-23T01:58:11.939Z,14.97
2018-05-23T02:00:39.516Z,14.91
2018-05-23T02:03:07.148Z,14.88
2018-05-23T02:05:34.704Z,14.90
2018-05-23T02:08:02.276Z,14.91
2018-05-23T02:10:29.807Z,14.93
2018-05-23T02:12:57.407Z,14.93
2018-05-23T02:15:24.996Z,14.92
2018-05-23T02:17:52.517Z,14.92
2018-05-23T02:20:20.123Z,14.95
2018-05-23T02:22:47.689Z,14.98
2018-05-23T02:25:15.223Z,14.95
2018-05-23T02:27:42.765Z,14.94
2018-05-23T02:30:10.299Z,14.98
2018-05-23T02:32:37.939Z,14.98
2018-05-23T02:35:05.555Z,14.99
2018-05-23T02:37:33.720Z,14.89
2018-05-23T02:40:01.246Z,14.88
2018-05-23T02:42:28.821Z,14.88
2018-05-23T02:44:56.413Z,14.90
2018-05-23T02:47:23.987Z,14.87
2018-05-23T02:49:52.497Z,14.86
2018-05-23T02:52:20.357Z,14.88
2018-05-23T02:54:47.984Z,14.91
2018-05-23T02:57:15.588Z,14.94
2018-05-23T02:59:43.203Z,14.94
2018-05-23T03:02:10.716Z,14.92
2018-05-23T03:04:38.263Z,14.96
2018-05-23T03:07:05.822Z,14.94
2018-05-23T03:09:33.356Z,14.99
2018-05-23T03:12:00.889Z,15.05
2018-05-23T03:14:28.524Z,15.08
2018-05-23T03:16:56.077Z,15.13
2018-05-23T03:19:23.759Z,15.12
2018-05-23T03:21:51.740Z,15.10
2018-05-23T03:24:19.356Z,15.15
2018-05-23T03:26:46.993Z,15.15
2018-05-23T03:29:14.453Z,15.10
2018-05-23T03:31:42.089Z,15.12
2018-05-23T03:34:09.624Z,15.12
2018-05-23T03:36:37.192Z,15.13
2018-05-23T03:39:06.630Z,15.09
2018-05-23T03:41:34.241Z,15.07
2018-05-23T03:44:01.836Z,15.07
2018-05-23T03:46:29.418Z,15.07
2018-05-23T03:48:56.974Z,15.13
2018-05-23T03:51:24.506Z,15.17
2018-05-23T03:53:52.016Z,15.19
2018-05-23T03:56:19.562Z,15.09
2018-05-23T03:58:47.107Z,15.06
2018-05-23T04:01:26.529Z,15.08
2018-05-23T04:04:05.966Z,15.08
2018-05-23T04:06:45.202Z,15.15
2018-05-23T04:09:12.716Z,15.00
2018-05-23T04:11:40.247Z,15.07
2018-05-23T04:14:07.787Z,15.04
2018-05-23T04:16:35.320Z,15.09
2018-05-23T04:19:02.830Z,15.07
2018-05-23T04:21:30.363Z,15.15
2018-05-23T04:23:57.901Z,15.05
2018-05-23T04:26:25.514Z,15.03
2018-05-23T04:28:53.064Z,15.13
2018-05-23T04:31:20.608Z,15.16
2018-05-23T04:33:48.240Z,15.17
2018-05-23T04:36:16.707Z,15.20
2018-05-23T04:38:44.338Z,15.33
2018-05-23T04:41:11.878Z,15.39
2018-05-23T04:43:39.392Z,15.48
2018-05-23T04:46:06.935Z,15.36
2018-05-23T04:48:34.679Z,15.21
2018-05-23T04:51:02.376Z,15.21
2018-05-23T04:53:29.926Z,15.23
2018-05-23T04:55:57.587Z,15.22
2018-05-23T04:58:25.126Z,15.11
2018-05-23T05:00:52.650Z,15.10
2018-05-23T05:03:20.973Z,15.08
2018-05-23T05:05:48.538Z,15.10
2018-05-23T05:08:17.311Z,15.18
2018-05-23T05:10:45.071Z,15.24
2018-05-23T05:13:12.672Z,15.37
2018-05-23T05:15:40.182Z,15.35
2018-05-23T05:18:07.719Z,15.36
2018-05-23T05:20:35.242Z,15.38
2018-05-23T05:23:05.139Z,15.38
2018-05-23T05:25:32.721Z,15.40
2018-05-23T05:28:00.251Z,15.43
2018-05-23T05:30:28.240Z,15.56
2018-05-23T05:32:55.806Z,15.58
2018-05-23T05:35:23.320Z,15.65
2018-05-23T05:46:30.576Z,15.74
2018-05-23T05:48:58.074Z,15.85
2018-05-23T05:51:25.558Z,15.89
2018-05-23T05:53:53.088Z,15.93
2018-05-23T05:56:20.573Z,16.09
2018-05-23T05:58:48.070Z,16.20
2018-05-23T06:01:16.462Z,16.29
2018-05-23T06:03:43.950Z,16.40
2018-05-23T06:06:11.432Z,16.26
2018-05-23T06:08:38.920Z,16.45
2018-05-23T06:11:06.401Z,16.63
2018-05-23T06:13:34.450Z,16.70
2018-05-23T06:16:01.931Z,16.70
2018-05-23T06:18:29.443Z,16.81
2018-05-23T06:20:56.919Z,16.95
2018-05-23T06:23:24.406Z,16.75
2018-05-23T06:25:51.878Z,16.84
2018-05-23T06:28:19.374Z,17.11
2018-05-23T06:30:46.854Z,17.44
2018-05-23T06:33:14.337Z,17.36
2018-05-23T06:35:41.810Z,17.09
2018-05-23T06:38:09.297Z,17.11
2018-05-23T06:40:36.758Z,17.42
2018-05-23T06:43:04.245Z,17.38
2018-05-23T06:45:31.722Z,16.91
2018-05-23T06:47:59.223Z,17.48
2018-05-23T06:50:26.690Z,17.66
2018-05-23T06:52:54.181Z,17.47
2018-05-23T06:55:21.646Z,17.65
2018-05-23T06:57:49.133Z,17.94
2018-05-23T07:00:16.612Z,17.81
2018-05-23T07:02:44.105Z,17.47
2018-05-23T07:05:11.583Z,18.10
2018-05-23T07:07:39.086Z,18.48
2018-05-23T07:10:06.558Z,18.55
2018-05-23T07:12:34.821Z,18.76
2018-05-23T07:15:02.311Z,18.70
2018-05-23T07:17:29.804Z,18.68
2018-05-23T07:19:57.298Z,18.32
2018-05-23T07:22:24.827Z,18.62
2018-05-23T07:24:52.290Z,18.64
2018-05-23T07:27:19.769Z,18.40
2018-05-23T07:29:47.254Z,18.33
2018-05-23T07:32:14.727Z,18.87
2018-05-23T07:34:42.218Z,18.40
2018-05-23T07:37:09.705Z,18.52
2018-05-23T07:39:37.189Z,18.07
2018-05-23T07:42:04.662Z,18.28
2018-05-23T07:44:32.155Z,18.44
2018-05-23T07:46:59.629Z,18.59
2018-05-23T07:49:27.123Z,18.73
2018-05-23T07:51:54.601Z,18.78
2018-05-23T07:54:22.089Z,18.66
2018-05-23T07:56:49.561Z,18.97
2018-05-23T07:59:17.050Z,19.67
2018-05-23T08:01:44.526Z,19.83
2018-05-23T08:04:12.014Z,19.69
2018-05-23T08:06:39.488Z,19.27
2018-05-23T08:09:06.982Z,19.69
2018-05-23T08:11:34.452Z,19.89
2018-05-23T08:14:01.954Z,19.91
2018-05-23T08:16:29.443Z,19.42
2018-05-23T08:18:56.934Z,19.53
2018-05-23T08:21:24.397Z,19.80
2018-05-23T08:23:51.886Z,20.41
2018-05-23T08:26:19.350Z,20.17
2018-05-23T08:28:46.845Z,20.81
2018-05-23T08:31:14.313Z,21.22
2018-05-23T08:33:41.792Z,21.34
2018-05-23T08:36:09.294Z,20.17
2018-05-23T08:38:36.757Z,20.87
2018-05-23T08:41:04.271Z,20.71
2018-05-23T08:43:31.750Z,19.87
2018-05-23T08:45:59.334Z,20.03
2018-05-23T08:48:26.734Z,20.70
2018-05-23T08:50:54.257Z,20.63
2018-05-23T08:53:21.732Z,19.73
2018-05-23T08:55:49.231Z,20.32
2018-05-23T08:58:16.697Z,20.59
2018-05-23T09:00:44.185Z,20.55
2018-05-23T09:03:11.658Z,20.56
2018-05-23T09:05:39.162Z,20.57
2018-05-23T09:08:06.654Z,20.75
2018-05-23T09:10:34.142Z,20.84
2018-05-23T09:13:01.628Z,21.41
2018-05-23T09:15:29.110Z,20.83
2018-05-23T09:17:56.587Z,19.74
2018-05-23T09:20:24.073Z,20.68
2018-05-23T09:22:51.550Z,21.40
2018-05-23T09:25:19.059Z,21.65
2018-05-23T09:27:46.518Z,22.24
2018-05-23T09:30:14.007Z,22.64
2018-05-23T09:32:41.482Z,21.59
2018-05-23T09:35:08.978Z,21.87
2018-05-23T09:37:36.442Z,22.41
2018-05-23T09:40:04.541Z,22.49
2018-05-23T09:42:32.011Z,21.79
2018-05-23T09:44:59.508Z,21.42
2018-05-23T09:47:26.993Z,21.60
2018-05-23T09:49:54.477Z,21.22
2018-05-23T09:52:21.942Z,21.83
2018-05-23T09:54:49.427Z,22.30
2018-05-23T09:57:16.898Z,22.89
2018-05-23T09:59:44.372Z,22.63
2018-05-23T10:02:11.870Z,23.51
2018-05-23T10:04:39.346Z,23.69
2018-05-23T10:07:06.846Z,24.12
2018-05-23T10:09:34.314Z,24.24
2018-05-23T10:12:01.811Z,24.38
2018-05-23T10:14:29.278Z,24.32
2018-05-23T10:16:56.774Z,24.16
2018-05-23T10:19:24.256Z,24.16
2018-05-23T10:21:51.745Z,23.99
2018-05-23T10:24:19.213Z,24.41
2018-05-23T10:26:46.702Z,24.65
2018-05-23T10:29:14.177Z,24.67
2018-05-23T10:31:41.667Z,24.90
2018-05-23T10:34:09.134Z,24.18
2018-05-23T10:36:36.625Z,24.39
2018-05-23T10:39:04.110Z,24.44
2018-05-23T10:41:31.618Z,24.93
2018-05-23T10:43:59.095Z,25.06
2018-05-23T10:46:26.587Z,25.08
2018-05-23T10:48:54.059Z,25.03
2018-05-23T10:51:21.550Z,25.85
2018-05-23T10:53:49.011Z,25.61
2018-05-23T10:56:16.518Z,25.22
2018-05-23T10:58:43.983Z,25.36
2018-05-23T11:01:11.522Z,24.78
2018-05-23T11:03:39.058Z,24.30
2018-05-23T11:06:06.596Z,24.68
2018-05-23T11:08:34.073Z,24.36
2018-05-23T11:11:01.574Z,24.33
2018-05-23T11:13:29.088Z,23.93
2018-05-23T11:15:56.609Z,24.11
2018-05-23T11:18:24.127Z,24.09
2018-05-23T11:20:51.610Z,23.70
2018-05-23T11:23:19.175Z,23.86
2018-05-23T11:25:46.591Z,23.91
2018-05-23T11:28:14.078Z,24.23
2018-05-23T11:30:41.547Z,24.33
2018-05-23T11:33:09.038Z,24.37
2018-05-23T11:35:36.503Z,24.06
2018-05-23T11:38:04.007Z,24.38
2018-05-23T11:40:31.490Z,25.05
2018-05-23T11:42:58.986Z,24.43
2018-05-23T11:45:26.461Z,24.70
2018-05-23T11:47:53.938Z,24.52
2018-05-23T11:50:21.451Z,24.82
2018-05-23T11:52:48.949Z,24.22
2018-05-23T11:55:16.407Z,24.08
2018-05-23T11:57:43.898Z,24.28
2018-05-23T12:00:11.401Z,24.55
2018-05-23T12:02:38.873Z,24.26
2018-05-23T12:05:06.337Z,24.50
2018-05-23T12:07:33.843Z,24.71
2018-05-23T12:10:01.310Z,24.27
2018-05-23T12:12:28.793Z,24.34
2018-05-23T12:14:56.278Z,24.21
2018-05-23T12:17:23.762Z,23.90
2018-05-23T12:19:51.233Z,24.20
2018-05-23T12:22:18.729Z,24.20
2018-05-23T13:46:43.229Z,26.05
2018-05-23T13:49:10.723Z,26.20
2018-05-23T13:51:38.190Z,27.27
2018-05-23T13:54:05.684Z,28.88
2018-05-23T13:56:33.168Z,30.46
2018-05-23T13:59:00.682Z,31.92
2018-05-23T14:01:28.151Z,31.69
2018-05-23T14:03:55.634Z,31.35
2018-05-23T14:06:25.099Z,31.50
2018-05-23T14:08:52.590Z,29.58
2018-05-23T14:11:21.077Z,29.82
